createdAt,value
2018-07-19T00:01:46.739Z,16.84
2018-07-19T00:04:20.139Z,16.82
2018-07-19T00:06:53.515Z,16.78
2018-07-19T00:09:26.967Z,16.78
2018-07-19T00:12:00.377Z,16.75
2018-07-19T00:14:33.780Z,16.69
2018-07-19T00:17:07.519Z,16.59
2018-07-19T00:19:40.936Z,16.48
2018-07-19T00:22:14.315Z,16.46
2018-07-19T00:24:47.705Z,16.46
2018-07-19T00:27:21.294Z,16.39
2018-07-19T00:29:54.675Z,16.37
2018-07-19T00:32:28.068Z,16.31
2018-07-19T00:35:01.425Z,16.25
2018-07-19T00:37:34.843Z,16.17
2018-07-19T00:40:08.240Z,16.14
2018-07-19T00:42:41.647Z,16.12
2018-07-19T00:45:15.066Z,16.18
2018-07-19T00:47:48.468Z,16.11
2018-07-19T00:50:21.827Z,16.08
2018-07-19T00:52:55.233Z,16.05
2018-07-19T00:55:28.588Z,16.03
2018-07-19T00:58:01.983Z,15.98
2018-07-19T01:00:35.527Z,16.02
2018-07-19T01:03:08.965Z,15.96
2018-07-19T01:05:42.324Z,15.90
2018-07-19T01:08:15.732Z,15.92
2018-07-19T01:10:49.103Z,15.95
2018-07-19T01:13:22.645Z,15.97
2018-07-19T01:15:56.019Z,15.94
2018-07-19T01:18:29.444Z,15.93
2018-07-19T01:21:02.815Z,15.89
2018-07-19T01:23:36.252Z,15.86
2018-07-19T01:26:09.642Z,15.80
2018-07-19T01:28:43.039Z,15.72
2018-07-19T01:31:16.771Z,15.69
2018-07-19T01:33:50.175Z,15.90
2018-07-19T01:36:23.567Z,15.84
2018-07-19T01:38:56.939Z,15.77
2018-07-19T01:41:41.572Z,15.68
2018-07-19T01:44:14.964Z,15.62
2018-07-19T01:46:48.385Z,15.59
2018-07-19T01:49:21.821Z,15.56
2018-07-19T01:51:55.295Z,15.54
2018-07-19T01:54:28.695Z,15.53
2018-07-19T01:57:02.196Z,15.49
2018-07-19T01:59:35.607Z,15.39
2018-07-19T02:02:09.076Z,15.45
2018-07-19T02:04:42.708Z,15.40
2018-07-19T02:07:16.220Z,15.33
2018-07-19T02:09:49.644Z,15.14
2018-07-19T02:12:23.083Z,15.10
2018-07-19T02:14:56.590Z,15.08
2018-07-19T02:17:30.064Z,15.03
2018-07-19T02:20:03.493Z,15.00
2018-07-19T02:22:36.923Z,14.95
2018-07-19T02:25:10.339Z,14.89
2018-07-19T02:27:43.768Z,14.85
2018-07-19T02:30:17.171Z,14.85
2018-07-19T02:32:50.623Z,14.84
2018-07-19T02:35:24.091Z,14.85
2018-07-19T02:37:57.528Z,14.88
2018-07-19T02:40:30.968Z,14.85
2018-07-19T02:43:04.436Z,14.82
2018-07-19T02:45:37.936Z,14.76
2018-07-19T02:48:11.368Z,14.72
2018-07-19T02:50:44.759Z,14.66
2018-07-19T02:53:18.272Z,14.62
2018-07-19T02:55:51.701Z,14.58
2018-07-19T02:58:25.167Z,14.55
2018-07-19T03:00:58.679Z,14.51
2018-07-19T03:03:32.126Z,14.44
2018-07-19T03:06:05.779Z,14.40
2018-07-19T03:08:39.240Z,14.37
2018-07-19T03:11:12.678Z,14.31
2018-07-19T03:13:46.113Z,14.30
2018-07-19T03:16:19.620Z,14.28
2018-07-19T03:18:53.022Z,14.25
2018-07-19T03:21:26.529Z,14.23
2018-07-19T03:23:59.926Z,14.18
2018-07-19T03:26:33.573Z,14.10
2018-07-19T03:29:07.068Z,14.07
2018-07-19T03:31:40.573Z,14.06
2018-07-19T03:34:14.007Z,14.05
2018-07-19T03:36:47.431Z,13.96
2018-07-19T03:39:20.875Z,13.93
2018-07-19T03:41:54.491Z,13.89
2018-07-19T03:44:28.817Z,13.92
2018-07-19T03:47:02.927Z,13.92
2018-07-19T03:49:36.356Z,13.91
2018-07-19T03:52:09.783Z,13.89
2018-07-19T03:54:43.255Z,13.88
2018-07-19T03:57:16.640Z,13.86
2018-07-19T03:59:50.302Z,13.80
2018-07-19T04:02:23.680Z,13.76
2018-07-19T04:04:57.211Z,13.74
2018-07-19T04:07:30.604Z,13.72
2018-07-19T04:10:04.199Z,13.68
2018-07-19T04:12:37.597Z,13.67
2018-07-19T04:15:11.047Z,13.65
2018-07-19T04:17:50.683Z,13.66
2018-07-19T04:20:25.655Z,13.68
2018-07-19T04:22:59.063Z,13.72
2018-07-19T04:25:32.484Z,13.81
2018-07-19T04:28:05.932Z,13.91
2018-07-19T04:30:39.354Z,14.10
2018-07-19T04:33:12.762Z,14.33
2018-07-19T04:35:46.323Z,14.48
2018-07-19T04:38:19.828Z,14.57
2018-07-19T04:40:53.172Z,14.78
2018-07-19T04:43:26.595Z,14.90
2018-07-19T04:46:00.354Z,15.00
2018-07-19T04:48:33.799Z,15.08
2018-07-19T04:51:07.328Z,15.20
2018-07-19T04:53:40.734Z,15.33
2018-07-19T04:56:14.176Z,15.43
2018-07-19T04:58:47.600Z,15.59
2018-07-19T05:01:21.051Z,15.75
2018-07-19T05:03:54.583Z,15.94
2018-07-19T05:06:27.990Z,16.11
2018-07-19T05:09:01.375Z,16.27
2018-07-19T05:11:34.848Z,16.39
2018-07-19T05:14:08.343Z,16.59
2018-07-19T05:16:41.712Z,16.73
2018-07-19T05:19:15.094Z,16.92
2018-07-19T05:21:48.503Z,17.21
2018-07-19T05:24:21.864Z,17.45
2018-07-19T05:26:55.282Z,17.66
2018-07-19T05:29:28.651Z,17.84
2018-07-19T05:32:02.017Z,18.01
2018-07-19T05:34:35.420Z,18.19
2018-07-19T05:37:08.909Z,18.38
2018-07-19T05:39:42.309Z,18.56
2018-07-19T05:42:15.734Z,18.73
2018-07-19T05:44:49.155Z,18.86
2018-07-19T05:47:22.642Z,18.94
2018-07-19T05:49:56.130Z,19.10
2018-07-19T05:52:29.548Z,19.29
2018-07-19T05:55:03.573Z,19.46
2018-07-19T05:57:37.121Z,19.84
2018-07-19T06:00:10.527Z,20.02
2018-07-19T06:02:43.967Z,20.13
2018-07-19T06:05:17.405Z,20.38
2018-07-19T06:07:50.786Z,20.57
2018-07-19T06:10:24.188Z,20.70
2018-07-19T06:12:57.604Z,20.83
2018-07-19T06:15:31.030Z,20.93
2018-07-19T06:18:04.459Z,21.06
2018-07-19T06:20:37.913Z,21.21
2018-07-19T06:23:11.303Z,21.37
2018-07-19T06:25:44.724Z,21.41
2018-07-19T06:28:18.178Z,21.71
2018-07-19T06:30:51.567Z,22.80
2018-07-19T06:33:24.973Z,23.98
2018-07-19T06:35:58.915Z,24.17
2018-07-19T06:38:32.325Z,23.75
2018-07-19T06:41:05.834Z,23.48
2018-07-19T06:43:39.241Z,23.30
2018-07-19T06:46:12.729Z,23.12
2018-07-19T06:48:46.113Z,23.06
2018-07-19T06:51:19.507Z,23.02
2018-07-19T06:53:52.886Z,23.00
2018-07-19T06:56:26.300Z,23.01
2018-07-19T06:58:59.669Z,23.02
2018-07-19T07:01:33.101Z,23.17
2018-07-19T07:04:06.514Z,23.15
2018-07-19T07:06:39.934Z,23.21
2018-07-19T07:09:13.452Z,23.38
2018-07-19T07:11:47.009Z,23.58
2018-07-19T07:14:20.377Z,23.70
2018-07-19T07:16:53.818Z,23.85
2018-07-19T07:19:27.223Z,23.84
2018-07-19T07:22:00.660Z,23.94
2018-07-19T07:24:34.424Z,23.99
2018-07-19T07:27:07.855Z,23.85
2018-07-19T07:29:41.250Z,23.99
2018-07-19T07:32:16.145Z,24.03
2018-07-19T07:34:49.693Z,24.06
2018-07-19T07:37:23.179Z,24.14
2018-07-19T07:39:56.625Z,24.31
2018-07-19T07:42:30.056Z,24.42
2018-07-19T07:45:03.513Z,24.55
2018-07-19T07:47:36.969Z,24.76
2018-07-19T07:50:10.399Z,24.85
2018-07-19T07:52:43.820Z,24.89
2018-07-19T07:55:17.236Z,24.91
2018-07-19T07:57:50.670Z,24.92
2018-07-19T08:00:24.086Z,24.98
2018-07-19T08:02:57.531Z,24.92
2018-07-19T08:05:30.936Z,24.97
2018-07-19T08:08:04.479Z,25.01
2018-07-19T08:10:37.892Z,24.99
2018-07-19T08:13:11.359Z,25.15
2018-07-19T08:15:44.880Z,25.28
2018-07-19T08:18:18.381Z,25.45
2018-07-19T08:20:51.787Z,25.52
2018-07-19T08:23:25.237Z,25.60
2018-07-19T08:25:58.733Z,25.63
2018-07-19T08:28:32.170Z,25.61
2018-07-19T08:31:05.662Z,25.73
2018-07-19T08:33:39.152Z,25.88
2018-07-19T08:36:13.587Z,25.96
2018-07-19T08:38:46.991Z,25.94
2018-07-19T08:41:20.423Z,25.97
2018-07-19T08:43:53.872Z,26.05
2018-07-19T08:46:27.296Z,26.03
2018-07-19T08:49:00.712Z,26.17
2018-07-19T08:51:34.137Z,26.32
2018-07-19T08:54:07.649Z,26.34
2018-07-19T08:56:41.074Z,26.37
2018-07-19T08:59:14.536Z,26.34
2018-07-19T09:01:47.990Z,26.44
2018-07-19T09:04:21.452Z,26.56
2018-07-19T09:06:54.877Z,26.64
2018-07-19T09:09:28.297Z,26.78
2018-07-19T09:12:01.692Z,26.79
2018-07-19T09:14:35.105Z,26.81
2018-07-19T09:17:08.564Z,26.78
2018-07-19T09:19:42.016Z,26.85
2018-07-19T09:22:15.416Z,26.81
2018-07-19T09:24:48.856Z,26.78
2018-07-19T09:27:22.712Z,26.83
2018-07-19T09:29:56.118Z,26.97
2018-07-19T09:32:29.539Z,27.22
2018-07-19T09:35:02.982Z,27.28
2018-07-19T09:37:36.430Z,27.31
2018-07-19T09:40:10.186Z,27.34
2018-07-19T09:42:43.624Z,27.36
2018-07-19T09:45:17.035Z,27.39
2018-07-19T09:47:50.471Z,27.42
2018-07-19T09:50:23.899Z,27.44
2018-07-19T09:52:57.340Z,27.53
2018-07-19T09:55:30.726Z,27.56
2018-07-19T09:58:04.183Z,27.62
2018-07-19T10:00:43.028Z,27.65
2018-07-19T10:03:16.456Z,27.72
2018-07-19T10:05:49.912Z,27.62
2018-07-19T10:08:23.316Z,27.57
2018-07-19T10:10:56.770Z,27.58
2018-07-19T10:13:30.281Z,27.60
2018-07-19T10:16:03.762Z,27.67
2018-07-19T10:18:37.145Z,27.70
2018-07-19T10:21:10.731Z,27.79
2018-07-19T10:23:44.135Z,27.87
2018-07-19T10:26:17.517Z,27.90
2018-07-19T10:28:50.931Z,27.93
2018-07-19T10:31:24.333Z,27.99
2018-07-19T10:33:57.748Z,28.00
2018-07-19T10:36:31.133Z,27.98
2018-07-19T10:39:05.998Z,28.09
2018-07-19T10:41:39.485Z,28.12
2018-07-19T10:44:12.896Z,28.05
2018-07-19T10:46:46.283Z,28.05
2018-07-19T10:49:19.719Z,28.08
2018-07-19T10:51:53.129Z,28.09
2018-07-19T10:54:26.472Z,28.23
2018-07-19T10:56:59.828Z,28.28
2018-07-19T10:59:33.211Z,28.44
2018-07-19T11:02:06.635Z,28.54
2018-07-19T11:04:40.017Z,28.70
2018-07-19T11:07:13.419Z,28.76
2018-07-19T11:09:47.243Z,28.77
2018-07-19T11:12:20.622Z,28.76
2018-07-19T11:14:54.005Z,28.78
2018-07-19T11:17:27.603Z,28.72
2018-07-19T11:20:00.973Z,28.90
2018-07-19T11:22:34.363Z,29.00
2018-07-19T11:25:07.774Z,28.83
2018-07-19T11:27:41.145Z,28.78
2018-07-19T11:30:14.555Z,28.80
2018-07-19T11:32:47.928Z,28.84
2018-07-19T11:35:21.401Z,28.95
2018-07-19T11:37:54.716Z,28.90
2018-07-19T11:40:28.152Z,28.94
2018-07-19T11:43:01.717Z,28.99
2018-07-19T11:45:35.083Z,29.06
2018-07-19T11:48:08.488Z,29.13
2018-07-19T11:50:41.859Z,29.14
2018-07-19T11:53:15.233Z,29.22
2018-07-19T11:55:48.617Z,29.15
2018-07-19T11:58:22.212Z,28.97
2018-07-19T12:00:55.609Z,28.55
2018-07-19T12:03:28.984Z,28.38
2018-07-19T12:06:02.415Z,28.42
2018-07-19T12:08:35.778Z,28.35
2018-07-19T12:11:09.207Z,28.19
2018-07-19T12:13:42.600Z,28.02
2018-07-19T12:16:16.075Z,27.96
2018-07-19T12:18:49.456Z,27.98
2018-07-19T12:21:22.879Z,28.00
2018-07-19T12:23:56.496Z,28.12
2018-07-19T12:26:29.955Z,28.20
2018-07-19T12:29:03.349Z,28.06
2018-07-19T12:31:36.783Z,27.91
2018-07-19T12:34:10.211Z,27.88
2018-07-19T12:36:43.615Z,28.03
2018-07-19T12:39:17.005Z,28.32
2018-07-19T12:41:50.439Z,28.33
2018-07-19T12:44:23.857Z,28.32
2018-07-19T12:46:57.300Z,28.23
2018-07-19T12:49:30.680Z,28.28
2018-07-19T12:52:04.249Z,28.40
2018-07-19T12:54:37.580Z,28.19
2018-07-19T12:57:11.025Z,28.04
2018-07-19T12:59:44.479Z,28.18
2018-07-19T13:02:17.905Z,28.48
2018-07-19T13:04:51.383Z,28.62
2018-07-19T13:07:24.796Z,28.65
2018-07-19T13:09:58.194Z,28.66
2018-07-19T13:12:31.628Z,28.64
2018-07-19T13:15:06.333Z,28.60
2018-07-19T13:17:39.913Z,28.51
2018-07-19T13:20:13.326Z,28.34
2018-07-19T13:22:46.734Z,28.49
2018-07-19T13:25:20.108Z,28.57
2018-07-19T13:27:53.524Z,28.33
2018-07-19T13:30:26.932Z,28.34
2018-07-19T13:33:00.355Z,28.45
2018-07-19T13:35:33.740Z,28.37
2018-07-19T13:38:07.143Z,28.13
2018-07-19T13:40:40.556Z,27.93
2018-07-19T13:43:13.956Z,27.84
2018-07-19T13:45:47.367Z,28.09
2018-07-19T13:48:20.853Z,28.46
2018-07-19T13:50:54.292Z,28.69
2018-07-19T13:53:40.215Z,28.65
2018-07-19T13:56:13.647Z,28.34
2018-07-19T13:58:47.071Z,28.18
2018-07-19T14:01:20.476Z,28.25
2018-07-19T14:03:53.900Z,28.34
2018-07-19T14:06:27.302Z,28.33
2018-07-19T14:09:00.712Z,28.45
2018-07-19T14:11:34.104Z,28.56
2018-07-19T14:14:07.613Z,28.60
2018-07-19T14:16:40.994Z,28.71
2018-07-19T14:19:14.419Z,28.74
2018-07-19T14:21:47.785Z,28.82
2018-07-19T14:24:21.167Z,28.80
2018-07-19T14:26:54.513Z,28.80
2018-07-19T14:29:27.924Z,28.74
2018-07-19T14:32:01.343Z,28.62
2018-07-19T14:34:34.769Z,28.44
2018-07-19T14:37:08.135Z,28.44
2018-07-19T14:39:41.516Z,28.48
2018-07-19T14:42:14.998Z,28.53
2018-07-19T14:44:48.399Z,28.60
2018-07-19T14:47:21.792Z,28.66
2018-07-19T14:49:55.162Z,28.60
2018-07-19T14:52:28.540Z,28.57
2018-07-19T14:55:01.941Z,28.57
2018-07-19T14:57:35.403Z,28.51
2018-07-19T15:00:09.591Z,28.38
2018-07-19T15:02:43.061Z,28.35
2018-07-19T15:05:16.508Z,28.32
2018-07-19T15:07:49.866Z,28.18
2018-07-19T15:10:23.563Z,28.25
2018-07-19T15:12:56.991Z,28.13
2018-07-19T15:15:30.592Z,28.10
2018-07-19T15:18:04.009Z,28.08
2018-07-19T15:20:37.404Z,28.03
2018-07-19T15:23:11.607Z,28.05
2018-07-19T15:25:45.131Z,28.17
2018-07-19T15:28:18.590Z,28.23
2018-07-19T15:30:52.313Z,28.26
2018-07-19T15:33:25.714Z,28.17
2018-07-19T15:35:59.106Z,27.99
2018-07-19T15:38:32.488Z,28.03
2018-07-19T15:41:05.897Z,28.03
2018-07-19T15:43:39.296Z,27.96
2018-07-19T15:46:12.680Z,27.94
2018-07-19T15:48:46.073Z,27.86
2018-07-19T15:51:19.517Z,27.96
2018-07-19T15:53:52.932Z,27.98
2018-07-19T15:56:26.357Z,27.96
2018-07-19T15:58:59.735Z,27.86
2018-07-19T16:01:33.209Z,27.73
2018-07-19T16:04:06.606Z,27.77
2018-07-19T16:06:40.862Z,27.71
2018-07-19T16:09:14.220Z,27.64
2018-07-19T16:11:47.654Z,27.66
2018-07-19T16:14:21.148Z,27.78
2018-07-19T16:16:54.564Z,27.76
2018-07-19T16:19:27.931Z,27.72
2018-07-19T16:22:01.315Z,27.72
2018-07-19T16:24:34.715Z,27.68
2018-07-19T16:27:08.121Z,27.84
2018-07-19T16:29:41.501Z,27.99
2018-07-19T16:32:14.891Z,27.88
2018-07-19T16:34:48.292Z,27.77
2018-07-19T16:37:22.065Z,27.71
2018-07-19T16:39:55.451Z,27.51
2018-07-19T16:42:28.856Z,27.45
2018-07-19T16:45:02.265Z,27.39
2018-07-19T16:47:35.719Z,27.34
2018-07-19T16:50:09.136Z,27.29
2018-07-19T16:52:42.537Z,27.32
2018-07-19T16:55:15.909Z,27.40
2018-07-19T16:57:49.295Z,27.38
2018-07-19T17:00:22.692Z,27.45
2018-07-19T17:02:56.129Z,27.66
2018-07-19T17:05:29.517Z,27.52
2018-07-19T17:08:02.981Z,27.38
2018-07-19T17:10:36.370Z,27.46
2018-07-19T17:13:09.974Z,27.46
2018-07-19T17:15:43.335Z,27.69
2018-07-19T17:18:16.739Z,27.73
2018-07-19T17:20:50.100Z,27.55
2018-07-19T17:23:23.475Z,27.29
2018-07-19T17:25:56.866Z,27.11
2018-07-19T17:28:30.253Z,26.92
2018-07-19T17:31:03.594Z,26.76
2018-07-19T17:33:36.977Z,26.68
2018-07-19T17:36:10.480Z,26.60
2018-07-19T17:38:43.881Z,26.52
2018-07-19T17:41:17.277Z,26.46
2018-07-19T17:43:50.643Z,26.44
2018-07-19T17:46:24.017Z,26.46
2018-07-19T17:48:57.414Z,26.40
2018-07-19T17:51:30.857Z,26.47
2018-07-19T17:54:04.342Z,26.46
2018-07-19T17:56:37.914Z,26.37
2018-07-19T17:59:11.351Z,26.39
2018-07-19T18:01:44.813Z,26.38
2018-07-19T18:04:18.289Z,26.34
2018-07-19T18:06:51.663Z,26.28
2018-07-19T18:09:25.071Z,26.23
2018-07-19T18:11:58.456Z,26.18
2018-07-19T18:14:31.859Z,26.08
2018-07-19T18:17:05.352Z,26.01
2018-07-19T18:19:38.728Z,25.90
2018-07-19T18:22:12.114Z,25.85
2018-07-19T18:24:46.698Z,25.76
2018-07-19T18:27:20.140Z,25.66
2018-07-19T18:29:53.573Z,25.62
2018-07-19T18:32:26.983Z,25.62
2018-07-19T18:35:00.438Z,25.55
2018-07-19T18:37:33.849Z,25.47
2018-07-19T18:40:07.362Z,25.35
2018-07-19T18:42:40.735Z,25.21
2018-07-19T18:45:14.108Z,25.11
2018-07-19T18:47:47.567Z,25.00
2018-07-19T18:50:20.939Z,24.88
2018-07-19T18:52:54.353Z,24.74
2018-07-19T18:55:27.771Z,24.62
2018-07-19T18:58:01.238Z,24.42
2018-07-19T19:00:34.644Z,24.26
2018-07-19T19:03:08.359Z,24.16
2018-07-19T19:05:41.846Z,24.01
2018-07-19T19:08:15.227Z,23.88
2018-07-19T19:10:48.620Z,23.74
2018-07-19T19:13:22.109Z,23.62
2018-07-19T19:15:55.505Z,23.52
2018-07-19T19:18:28.905Z,23.36
2018-07-19T19:21:02.363Z,23.23
2018-07-19T19:23:35.824Z,23.04
2018-07-19T19:26:09.763Z,22.93
2018-07-19T19:28:43.591Z,22.79
2018-07-19T19:31:17.252Z,22.67
2018-07-19T19:33:50.681Z,22.55
2018-07-19T19:36:24.059Z,22.41
2018-07-19T19:38:57.580Z,22.39
2018-07-19T19:41:31.136Z,22.28
2018-07-19T19:44:04.569Z,22.16
2018-07-19T19:46:37.997Z,22.07
2018-07-19T19:49:11.484Z,21.99
2018-07-19T19:51:44.885Z,21.89
2018-07-19T19:54:18.333Z,21.80
2018-07-19T19:56:51.688Z,21.70
2018-07-19T19:59:25.101Z,21.56
2018-07-19T20:01:58.476Z,21.44
2018-07-19T20:04:31.866Z,21.27
2018-07-19T20:07:05.262Z,21.13
2018-07-19T20:09:38.675Z,21.01
2018-07-19T20:12:12.079Z,20.86
2018-07-19T20:14:45.764Z,20.76
2018-07-19T20:17:19.141Z,20.73
2018-07-19T20:19:52.524Z,20.68
2018-07-19T20:22:25.904Z,20.60
2018-07-19T20:24:59.384Z,20.53
2018-07-19T20:27:32.728Z,20.45
2018-07-19T20:30:06.167Z,20.38
2018-07-19T20:32:39.559Z,20.18
2018-07-19T20:35:12.934Z,19.97
2018-07-19T20:37:46.297Z,19.87
2018-07-19T20:40:19.672Z,19.83
2018-07-19T20:42:53.224Z,19.83
2018-07-19T20:45:26.799Z,19.82
2018-07-19T20:48:00.127Z,19.81
2018-07-19T20:50:33.518Z,19.75
2018-07-19T20:53:06.874Z,19.72
2018-07-19T20:55:40.357Z,19.68
2018-07-19T20:58:13.711Z,19.63
2018-07-19T21:00:47.335Z,19.56
2018-07-19T21:03:20.951Z,19.48
2018-07-19T21:05:54.404Z,19.36
2018-07-19T21:08:27.818Z,19.26
2018-07-19T21:11:01.390Z,19.18
2018-07-19T21:13:35.375Z,19.08
2018-07-19T21:16:08.913Z,18.97
2018-07-19T21:18:42.378Z,18.95
2018-07-19T21:21:15.772Z,18.89
2018-07-19T21:23:49.191Z,18.79
2018-07-19T21:26:22.583Z,18.73
2018-07-19T21:28:56.112Z,18.72
2018-07-19T21:31:30.304Z,18.70
2018-07-19T21:34:04.354Z,18.66
2018-07-19T21:36:38.696Z,18.57
2018-07-19T21:39:13.442Z,18.48
2018-07-19T21:41:47.719Z,18.43
2018-07-19T21:44:21.168Z,18.41
2018-07-19T21:46:54.632Z,18.39
2018-07-19T21:49:28.042Z,18.30
2018-07-19T21:52:01.468Z,18.21
2018-07-19T21:54:34.956Z,18.15
2018-07-19T21:57:08.371Z,18.12
2018-07-19T21:59:41.776Z,18.09
2018-07-19T22:02:15.489Z,18.08
2018-07-19T22:04:48.940Z,18.02
2018-07-19T22:07:22.361Z,18.01
2018-07-19T22:09:55.781Z,18.01
2018-07-19T22:12:29.191Z,18.00
2018-07-19T22:15:02.577Z,17.97
2018-07-19T22:17:35.988Z,17.94
2018-07-19T22:20:09.355Z,17.95
2018-07-19T22:22:42.735Z,17.94
2018-07-19T22:25:16.095Z,17.92
2018-07-19T22:27:49.523Z,17.91
2018-07-19T22:30:22.920Z,17.83
2018-07-19T22:37:48.744Z,17.80
2018-07-19T22:40:22.117Z,17.74
2018-07-19T22:42:55.494Z,17.65
2018-07-19T22:45:28.922Z,17.61
2018-07-19T22:48:02.299Z,17.63
2018-07-19T22:50:35.658Z,17.65
2018-07-19T22:53:09.053Z,17.65
2018-07-19T22:55:42.451Z,17.60
2018-07-19T22:58:15.841Z,17.55
2018-07-19T23:00:49.276Z,17.54
2018-07-19T23:03:22.990Z,17.51
2018-07-19T23:05:56.376Z,17.48
2018-07-19T23:08:29.759Z,17.44
2018-07-19T23:11:03.152Z,17.40
2018-07-19T23:13:36.619Z,17.39
2018-07-19T23:16:10.935Z,17.36
2018-07-19T23:18:44.435Z,17.35
2018-07-19T23:21:17.831Z,17.31
2018-07-19T23:23:51.192Z,17.25
2018-07-19T23:26:24.907Z,17.20
2018-07-19T23:28:58.447Z,17.15
2018-07-19T23:31:31.875Z,17.10
2018-07-19T23:34:05.565Z,17.08
2018-07-19T23:36:45.537Z,17.07
2018-07-19T23:39:29.463Z,17.03
2018-07-19T23:42:08.207Z,17.01
2018-07-19T23:44:50.199Z,16.96
2018-07-19T23:47:26.943Z,16.88
2018-07-19T23:50:00.325Z,16.82
2018-07-19T23:52:33.725Z,16.79
2018-07-19T23:55:07.157Z,16.73
2018-07-19T23:57:40.543Z,16.65
